sensor_id;sensor_type;location;lat;lon;timestamp;P1;durP1;ratioP1;P2;durP2;ratioP2
60243;SDS011;46106;51.468;5.814;2022-09-16T00:01:46;21.40;;;3.17;;
60243;SDS011;46106;51.468;5.814;2022-09-16T00:04:12;13.75;;;2.50;;
60243;SDS011;46106;51.468;5.814;2022-09-16T00:06:47;8.13;;;2.22;;
60243;SDS011;46106;51.468;5.814;2022-09-16T00:09:19;23.02;;;3.10;;
60243;SDS011;46106;51.468;5.814;2022-09-16T00:11:44;14.32;;;3.17;;
60243;SDS011;46106;51.468;5.814;2022-09-16T00:14:12;11.55;;;2.10;;
60243;SDS011;46106;51.468;5.814;2022-09-16T00:16:46;15.18;;;2.88;;
60243;SDS011;46106;51.468;5.814;2022-09-16T00:19:12;14.98;;;2.38;;
60243;SDS011;46106;51.468;5.814;2022-09-16T00:21:39;14.10;;;2.95;;
60243;SDS011;46106;51.468;5.814;2022-09-16T00:24:11;14.27;;;2.77;;
60243;SDS011;46106;51.468;5.814;2022-09-16T00:26:47;16.77;;;3.05;;
60243;SDS011;46106;51.468;5.814;2022-09-16T00:29:14;15.10;;;3.00;;
60243;SDS011;46106;51.468;5.814;2022-09-16T00:31:40;14.10;;;3.33;;
60243;SDS011;46106;51.468;5.814;2022-09-16T00:34:10;10.55;;;3.22;;
60243;SDS011;46106;51.468;5.814;2022-09-16T00:36:44;18.65;;;2.90;;
60243;SDS011;46106;51.468;5.814;2022-09-16T00:39:10;14.07;;;3.00;;
60243;SDS011;46106;51.468;5.814;2022-09-16T00:41:46;17.40;;;3.40;;
60243;SDS011;46106;51.468;5.814;2022-09-16T00:47:44;19.05;;;3.38;;
60243;SDS011;46106;51.468;5.814;2022-09-16T00:50:24;22.17;;;3.28;;
60243;SDS011;46106;51.468;5.814;2022-09-16T00:52:59;21.48;;;3.70;;
60243;SDS011;46106;51.468;5.814;2022-09-16T00:55:30;21.45;;;2.95;;
60243;SDS011;46106;51.468;5.814;2022-09-16T00:58:38;13.57;;;3.13;;
60243;SDS011;46106;51.468;5.814;2022-09-16T01:01:09;16.15;;;3.50;;
60243;SDS011;46106;51.468;5.814;2022-09-16T01:03:50;20.80;;;3.45;;
60243;SDS011;46106;51.468;5.814;2022-09-16T01:06:22;13.05;;;3.22;;
60243;SDS011;46106;51.468;5.814;2022-09-16T01:08:54;15.65;;;4.18;;
60243;SDS011;46106;51.468;5.814;2022-09-16T01:11:29;21.95;;;3.88;;
60243;SDS011;46106;51.468;5.814;2022-09-16T01:14:03;10.23;;;3.50;;
60243;SDS011;46106;51.468;5.814;2022-09-16T01:16:58;19.25;;;3.45;;
60243;SDS011;46106;51.468;5.814;2022-09-16T01:25:58;18.65;;;3.05;;
60243;SDS011;46106;51.468;5.814;2022-09-16T01:31:42;17.33;;;3.63;;
60243;SDS011;46106;51.468;5.814;2022-09-16T01:40:29;12.93;;;2.40;;
60243;SDS011;46106;51.468;5.814;2022-09-16T01:43:15;22.23;;;3.28;;
60243;SDS011;46106;51.468;5.814;2022-09-16T01:51:41;15.20;;;2.90;;
60243;SDS011;46106;51.468;5.814;2022-09-16T01:54:20;10.38;;;2.67;;
60243;SDS011;46106;51.468;5.814;2022-09-16T01:57:16;13.82;;;3.30;;
60243;SDS011;46106;51.468;5.814;2022-09-16T02:00:04;25.00;;;3.20;;
60243;SDS011;46106;51.468;5.814;2022-09-16T02:05:30;20.63;;;3.60;;
60243;SDS011;46106;51.468;5.814;2022-09-16T02:08:10;23.77;;;3.67;;
60243;SDS011;46106;51.468;5.814;2022-09-16T02:10:45;24.35;;;4.25;;
60243;SDS011;46106;51.468;5.814;2022-09-16T02:13:29;23.70;;;4.22;;
60243;SDS011;46106;51.468;5.814;2022-09-16T02:16:05;18.02;;;4.20;;
60243;SDS011;46106;51.468;5.814;2022-09-16T02:18:48;21.27;;;4.00;;
60243;SDS011;46106;51.468;5.814;2022-09-16T02:21:20;22.20;;;4.50;;
60243;SDS011;46106;51.468;5.814;2022-09-16T02:23:52;15.23;;;4.10;;
60243;SDS011;46106;51.468;5.814;2022-09-16T02:26:29;19.33;;;5.72;;
60243;SDS011;46106;51.468;5.814;2022-09-16T02:29:02;18.48;;;4.63;;
60243;SDS011;46106;51.468;5.814;2022-09-16T02:31:38;22.27;;;4.75;;
60243;SDS011;46106;51.468;5.814;2022-09-16T02:34:12;19.70;;;4.63;;
60243;SDS011;46106;51.468;5.814;2022-09-16T02:36:45;20.48;;;4.70;;
60243;SDS011;46106;51.468;5.814;2022-09-16T02:39:19;23.52;;;5.22;;
60243;SDS011;46106;51.468;5.814;2022-09-16T02:42:00;24.23;;;6.00;;
60243;SDS011;46106;51.468;5.814;2022-09-16T02:44:26;19.55;;;5.07;;
60243;SDS011;46106;51.468;5.814;2022-09-16T02:47:07;21.48;;;5.40;;
60243;SDS011;46106;51.468;5.814;2022-09-16T02:58:09;18.17;;;5.13;;
60243;SDS011;46106;51.468;5.814;2022-09-16T03:00:41;24.02;;;5.70;;
60243;SDS011;46106;51.468;5.814;2022-09-16T03:03:11;32.33;;;5.60;;
60243;SDS011;46106;51.468;5.814;2022-09-16T03:08:38;20.20;;;5.10;;
60243;SDS011;46106;51.468;5.814;2022-09-16T03:11:21;19.73;;;4.95;;
60243;SDS011;46106;51.468;5.814;2022-09-16T03:27:52;21.52;;;4.53;;
60243;SDS011;46106;51.468;5.814;2022-09-16T03:30:31;25.17;;;5.25;;
60243;SDS011;46106;51.468;5.814;2022-09-16T03:33:03;16.63;;;4.15;;
60243;SDS011;46106;51.468;5.814;2022-09-16T03:35:39;25.08;;;5.28;;
60243;SDS011;46106;51.468;5.814;2022-09-16T03:38:10;15.48;;;4.32;;
60243;SDS011;46106;51.468;5.814;2022-09-16T03:40:40;18.05;;;3.92;;
60243;SDS011;46106;51.468;5.814;2022-09-16T03:43:12;19.92;;;4.82;;
60243;SDS011;46106;51.468;5.814;2022-09-16T03:45:40;15.38;;;4.43;;
60243;SDS011;46106;51.468;5.814;2022-09-16T03:48:11;18.98;;;4.72;;
60243;SDS011;46106;51.468;5.814;2022-09-16T03:50:37;25.10;;;5.15;;
60243;SDS011;46106;51.468;5.814;2022-09-16T03:53:09;19.65;;;4.30;;
60243;SDS011;46106;51.468;5.814;2022-09-16T03:55:38;18.85;;;5.15;;
60243;SDS011;46106;51.468;5.814;2022-09-16T03:58:13;9.75;;;3.60;;
60243;SDS011;46106;51.468;5.814;2022-09-16T04:00:48;14.70;;;4.25;;
60243;SDS011;46106;51.468;5.814;2022-09-16T04:03:22;54.67;;;5.13;;
60243;SDS011;46106;51.468;5.814;2022-09-16T04:05:54;12.57;;;4.50;;
60243;SDS011;46106;51.468;5.814;2022-09-16T04:08:22;23.13;;;4.97;;
60243;SDS011;46106;51.468;5.814;2022-09-16T04:10:56;22.35;;;4.20;;
60243;SDS011;46106;51.468;5.814;2022-09-16T04:13:30;16.27;;;5.22;;
60243;SDS011;46106;51.468;5.814;2022-09-16T04:16:01;12.95;;;3.60;;
60243;SDS011;46106;51.468;5.814;2022-09-16T04:18:32;16.95;;;3.70;;
60243;SDS011;46106;51.468;5.814;2022-09-16T04:21:10;19.23;;;4.03;;
60243;SDS011;46106;51.468;5.814;2022-09-16T04:23:36;14.45;;;3.65;;
60243;SDS011;46106;51.468;5.814;2022-09-16T04:26:02;18.15;;;3.17;;
60243;SDS011;46106;51.468;5.814;2022-09-16T04:28:32;19.27;;;3.63;;
60243;SDS011;46106;51.468;5.814;2022-09-16T04:31:03;17.15;;;2.97;;
60243;SDS011;46106;51.468;5.814;2022-09-16T04:33:31;9.95;;;2.60;;
60243;SDS011;46106;51.468;5.814;2022-09-16T04:38:30;14.02;;;2.58;;
60243;SDS011;46106;51.468;5.814;2022-09-16T04:41:02;8.30;;;2.72;;
60243;SDS011;46106;51.468;5.814;2022-09-16T04:43:37;15.35;;;3.60;;
60243;SDS011;46106;51.468;5.814;2022-09-16T04:46:05;11.73;;;2.63;;
60243;SDS011;46106;51.468;5.814;2022-09-16T04:48:40;9.00;;;2.58;;
60243;SDS011;46106;51.468;5.814;2022-09-16T04:51:10;12.65;;;2.97;;
60243;SDS011;46106;51.468;5.814;2022-09-16T04:53:47;15.40;;;3.22;;
60243;SDS011;46106;51.468;5.814;2022-09-16T04:56:17;18.30;;;3.65;;
60243;SDS011;46106;51.468;5.814;2022-09-16T04:58:45;13.30;;;3.40;;
60243;SDS011;46106;51.468;5.814;2022-09-16T05:01:17;12.43;;;3.47;;
60243;SDS011;46106;51.468;5.814;2022-09-16T05:03:51;13.63;;;2.97;;
60243;SDS011;46106;51.468;5.814;2022-09-16T05:06:19;15.65;;;2.50;;
60243;SDS011;46106;51.468;5.814;2022-09-16T05:09:11;24.13;;;2.92;;
60243;SDS011;46106;51.468;5.814;2022-09-16T05:11:38;17.05;;;3.75;;
60243;SDS011;46106;51.468;5.814;2022-09-16T05:14:06;12.63;;;3.03;;
60243;SDS011;46106;51.468;5.814;2022-09-16T05:16:47;13.20;;;3.70;;
60243;SDS011;46106;51.468;5.814;2022-09-16T05:19:17;13.93;;;2.88;;
60243;SDS011;46106;51.468;5.814;2022-09-16T05:21:45;10.38;;;2.40;;
60243;SDS011;46106;51.468;5.814;2022-09-16T05:24:22;14.95;;;2.90;;
60243;SDS011;46106;51.468;5.814;2022-09-16T05:26:50;16.42;;;3.20;;
60243;SDS011;46106;51.468;5.814;2022-09-16T05:29:24;8.00;;;2.20;;
60243;SDS011;46106;51.468;5.814;2022-09-16T05:31:51;9.18;;;2.63;;
60243;SDS011;46106;51.468;5.814;2022-09-16T05:34:26;16.60;;;2.95;;
60243;SDS011;46106;51.468;5.814;2022-09-16T05:36:53;12.02;;;2.85;;
60243;SDS011;46106;51.468;5.814;2022-09-16T05:39:21;13.88;;;3.13;;
60243;SDS011;46106;51.468;5.814;2022-09-16T05:41:48;9.27;;;2.28;;
60243;SDS011;46106;51.468;5.814;2022-09-16T05:44:15;14.75;;;2.33;;
60243;SDS011;46106;51.468;5.814;2022-09-16T05:46:40;20.42;;;2.50;;
60243;SDS011;46106;51.468;5.814;2022-09-16T05:49:14;10.35;;;2.60;;
60243;SDS011;46106;51.468;5.814;2022-09-16T05:51:47;21.40;;;2.45;;
60243;SDS011;46106;51.468;5.814;2022-09-16T05:54:13;14.35;;;3.00;;
60243;SDS011;46106;51.468;5.814;2022-09-16T05:56:42;26.23;;;3.22;;
60243;SDS011;46106;51.468;5.814;2022-09-16T05:59:11;12.13;;;2.47;;
60243;SDS011;46106;51.468;5.814;2022-09-16T06:01:39;16.83;;;3.60;;
60243;SDS011;46106;51.468;5.814;2022-09-16T06:04:12;20.90;;;3.92;;
60243;SDS011;46106;51.468;5.814;2022-09-16T06:06:44;29.03;;;4.27;;
60243;SDS011;46106;51.468;5.814;2022-09-16T06:09:15;10.85;;;3.50;;
60243;SDS011;46106;51.468;5.814;2022-09-16T06:11:47;12.47;;;3.93;;
60243;SDS011;46106;51.468;5.814;2022-09-16T06:14:17;11.75;;;4.20;;
60243;SDS011;46106;51.468;5.814;2022-09-16T06:16:45;17.38;;;3.25;;
60243;SDS011;46106;51.468;5.814;2022-09-16T06:19:13;10.80;;;2.45;;
60243;SDS011;46106;51.468;5.814;2022-09-16T06:21:43;13.88;;;2.63;;
60243;SDS011;46106;51.468;5.814;2022-09-16T06:24:11;10.45;;;3.03;;
60243;SDS011;46106;51.468;5.814;2022-09-16T06:26:42;13.13;;;2.67;;
60243;SDS011;46106;51.468;5.814;2022-09-16T06:29:14;18.90;;;2.30;;
60243;SDS011;46106;51.468;5.814;2022-09-16T06:31:41;6.25;;;1.55;;
60243;SDS011;46106;51.468;5.814;2022-09-16T06:34:14;8.90;;;1.67;;
60243;SDS011;46106;51.468;5.814;2022-09-16T06:36:42;14.40;;;1.70;;
60243;SDS011;46106;51.468;5.814;2022-09-16T06:39:10;9.82;;;1.60;;
60243;SDS011;46106;51.468;5.814;2022-09-16T06:41:43;11.63;;;1.83;;
60243;SDS011;46106;51.468;5.814;2022-09-16T06:44:12;6.72;;;1.52;;
60243;SDS011;46106;51.468;5.814;2022-09-16T06:46:45;9.10;;;1.45;;
60243;SDS011;46106;51.468;5.814;2022-09-16T06:49:18;5.28;;;1.40;;
60243;SDS011;46106;51.468;5.814;2022-09-16T06:51:43;10.88;;;1.83;;
60243;SDS011;46106;51.468;5.814;2022-09-16T06:54:11;9.05;;;1.42;;
60243;SDS011;46106;51.468;5.814;2022-09-16T06:56:39;14.75;;;2.00;;
60243;SDS011;46106;51.468;5.814;2022-09-16T06:59:05;13.77;;;3.53;;
60243;SDS011;46106;51.468;5.814;2022-09-16T07:01:34;19.45;;;2.03;;
60243;SDS011;46106;51.468;5.814;2022-09-16T07:04:02;8.32;;;2.00;;
60243;SDS011;46106;51.468;5.814;2022-09-16T07:06:30;7.82;;;1.40;;
60243;SDS011;46106;51.468;5.814;2022-09-16T07:08:59;12.88;;;1.83;;
60243;SDS011;46106;51.468;5.814;2022-09-16T07:11:25;13.93;;;1.85;;
60243;SDS011;46106;51.468;5.814;2022-09-16T07:13:54;11.15;;;1.60;;
60243;SDS011;46106;51.468;5.814;2022-09-16T07:16:28;7.00;;;1.15;;
60243;SDS011;46106;51.468;5.814;2022-09-16T07:18:57;12.10;;;2.03;;
60243;SDS011;46106;51.468;5.814;2022-09-16T07:21:28;6.18;;;1.33;;
60243;SDS011;46106;51.468;5.814;2022-09-16T07:24:02;14.68;;;2.17;;
60243;SDS011;46106;51.468;5.814;2022-09-16T07:26:30;7.28;;;1.20;;
60243;SDS011;46106;51.468;5.814;2022-09-16T07:28:58;11.63;;;1.20;;
60243;SDS011;46106;51.468;5.814;2022-09-16T07:31:30;13.15;;;1.30;;
60243;SDS011;46106;51.468;5.814;2022-09-16T07:33:57;9.52;;;0.90;;
60243;SDS011;46106;51.468;5.814;2022-09-16T07:36:38;10.35;;;1.20;;
60243;SDS011;46106;51.468;5.814;2022-09-16T07:39:10;17.02;;;1.42;;
60243;SDS011;46106;51.468;5.814;2022-09-16T07:41:44;8.43;;;1.00;;
60243;SDS011;46106;51.468;5.814;2022-09-16T07:44:20;9.10;;;1.00;;
60243;SDS011;46106;51.468;5.814;2022-09-16T07:46:52;5.30;;;0.80;;
60243;SDS011;46106;51.468;5.814;2022-09-16T07:49:21;11.35;;;0.88;;
60243;SDS011;46106;51.468;5.814;2022-09-16T07:51:47;8.00;;;1.13;;
60243;SDS011;46106;51.468;5.814;2022-09-16T07:54:20;6.72;;;0.73;;
60243;SDS011;46106;51.468;5.814;2022-09-16T07:56:52;3.58;;;0.60;;
60243;SDS011;46106;51.468;5.814;2022-09-16T07:59:21;5.68;;;0.60;;
60243;SDS011;46106;51.468;5.814;2022-09-16T08:01:48;7.05;;;1.00;;
60243;SDS011;46106;51.468;5.814;2022-09-16T08:04:15;8.10;;;0.75;;
60243;SDS011;46106;51.468;5.814;2022-09-16T08:06:44;8.98;;;1.10;;
60243;SDS011;46106;51.468;5.814;2022-09-16T08:09:13;9.32;;;0.80;;
60243;SDS011;46106;51.468;5.814;2022-09-16T08:11:40;9.55;;;1.20;;
60243;SDS011;46106;51.468;5.814;2022-09-16T08:14:11;7.38;;;1.17;;
60243;SDS011;46106;51.468;5.814;2022-09-16T08:16:38;7.00;;;0.77;;
60243;SDS011;46106;51.468;5.814;2022-09-16T08:19:13;6.85;;;0.80;;
60243;SDS011;46106;51.468;5.814;2022-09-16T08:21:41;7.80;;;0.93;;
60243;SDS011;46106;51.468;5.814;2022-09-16T08:24:09;4.90;;;0.60;;
60243;SDS011;46106;51.468;5.814;2022-09-16T08:26:37;8.68;;;0.70;;
60243;SDS011;46106;51.468;5.814;2022-09-16T08:29:15;8.43;;;1.02;;
60243;SDS011;46106;51.468;5.814;2022-09-16T08:31:48;12.00;;;1.10;;
60243;SDS011;46106;51.468;5.814;2022-09-16T08:34:14;4.88;;;0.73;;
60243;SDS011;46106;51.468;5.814;2022-09-16T08:36:49;5.22;;;0.73;;
60243;SDS011;46106;51.468;5.814;2022-09-16T08:39:15;10.73;;;1.02;;
60243;SDS011;46106;51.468;5.814;2022-09-16T08:44:40;7.10;;;0.93;;
60243;SDS011;46106;51.468;5.814;2022-09-16T08:50:11;4.93;;;0.80;;
60243;SDS011;46106;51.468;5.814;2022-09-16T08:52:44;8.00;;;0.68;;
60243;SDS011;46106;51.468;5.814;2022-09-16T08:55:29;13.77;;;0.70;;
60243;SDS011;46106;51.468;5.814;2022-09-16T08:58:06;5.80;;;0.90;;
60243;SDS011;46106;51.468;5.814;2022-09-16T09:00:49;8.50;;;0.90;;
60243;SDS011;46106;51.468;5.814;2022-09-16T09:03:36;7.45;;;0.80;;
60243;SDS011;46106;51.468;5.814;2022-09-16T09:09:16;10.25;;;1.15;;
60243;SDS011;46106;51.468;5.814;2022-09-16T09:12:17;5.10;;;0.70;;
60243;SDS011;46106;51.468;5.814;2022-09-16T09:17:34;14.43;;;1.10;;
60243;SDS011;46106;51.468;5.814;2022-09-16T09:28:36;9.57;;;0.95;;
60243;SDS011;46106;51.468;5.814;2022-09-16T09:36:57;7.13;;;1.02;;
60243;SDS011;46106;51.468;5.814;2022-09-16T09:45:55;9.88;;;0.90;;
60243;SDS011;46106;51.468;5.814;2022-09-16T09:48:29;4.68;;;0.75;;
60243;SDS011;46106;51.468;5.814;2022-09-16T09:51:19;3.30;;;0.68;;
60243;SDS011;46106;51.468;5.814;2022-09-16T09:53:53;7.25;;;0.95;;
60243;SDS011;46106;51.468;5.814;2022-09-16T09:56:29;6.55;;;0.75;;
60243;SDS011;46106;51.468;5.814;2022-09-16T10:02:00;7.13;;;0.88;;
60243;SDS011;46106;51.468;5.814;2022-09-16T10:04:30;6.18;;;0.52;;
60243;SDS011;46106;51.468;5.814;2022-09-16T10:07:02;5.57;;;0.98;;
60243;SDS011;46106;51.468;5.814;2022-09-16T10:09:47;7.22;;;1.05;;
60243;SDS011;46106;51.468;5.814;2022-09-16T10:12:30;7.18;;;1.00;;
60243;SDS011;46106;51.468;5.814;2022-09-16T10:14:59;1.38;;;0.55;;
60243;SDS011;46106;51.468;5.814;2022-09-16T10:17:30;4.90;;;0.70;;
60243;SDS011;46106;51.468;5.814;2022-09-16T10:19:59;5.38;;;0.82;;
60243;SDS011;46106;51.468;5.814;2022-09-16T10:22:30;6.00;;;0.60;;
60243;SDS011;46106;51.468;5.814;2022-09-16T10:25:22;2.80;;;0.40;;
60243;SDS011;46106;51.468;5.814;2022-09-16T10:28:15;4.70;;;0.60;;
60243;SDS011;46106;51.468;5.814;2022-09-16T10:30:47;7.68;;;0.63;;
60243;SDS011;46106;51.468;5.814;2022-09-16T10:33:35;3.83;;;0.52;;
60243;SDS011;46106;51.468;5.814;2022-09-16T10:36:10;3.70;;;0.70;;
60243;SDS011;46106;51.468;5.814;2022-09-16T10:38:52;2.72;;;0.65;;
60243;SDS011;46106;51.468;5.814;2022-09-16T10:41:31;3.55;;;0.30;;
60243;SDS011;46106;51.468;5.814;2022-09-16T10:47:05;4.60;;;0.45;;
60243;SDS011;46106;51.468;5.814;2022-09-16T10:49:48;5.68;;;0.43;;
60243;SDS011;46106;51.468;5.814;2022-09-16T10:52:26;5.00;;;0.50;;
60243;SDS011;46106;51.468;5.814;2022-09-16T10:54:55;2.47;;;0.40;;
60243;SDS011;46106;51.468;5.814;2022-09-16T10:57:30;6.85;;;0.50;;
60243;SDS011;46106;51.468;5.814;2022-09-16T11:14:20;4.30;;;0.55;;
60243;SDS011;46106;51.468;5.814;2022-09-16T11:16:54;8.88;;;1.02;;
60243;SDS011;46106;51.468;5.814;2022-09-16T11:34:57;9.32;;;1.00;;
60243;SDS011;46106;51.468;5.814;2022-09-16T11:37:20;6.82;;;1.55;;
60243;SDS011;46106;51.468;5.814;2022-09-16T11:40:01;10.80;;;2.58;;
60243;SDS011;46106;51.468;5.814;2022-09-16T11:50:14;15.18;;;2.88;;
60243;SDS011;46106;51.468;5.814;2022-09-16T11:55:30;5.57;;;1.73;;
60243;SDS011;46106;51.468;5.814;2022-09-16T12:01:35;4.57;;;1.80;;
60243;SDS011;46106;51.468;5.814;2022-09-16T12:04:26;6.40;;;1.75;;
60243;SDS011;46106;51.468;5.814;2022-09-16T12:07:00;7.97;;;1.35;;
60243;SDS011;46106;51.468;5.814;2022-09-16T12:09:54;9.35;;;1.85;;
60243;SDS011;46106;51.468;5.814;2022-09-16T12:12:36;4.00;;;1.40;;
60243;SDS011;46106;51.468;5.814;2022-09-16T12:15:28;4.60;;;1.13;;
60243;SDS011;46106;51.468;5.814;2022-09-16T12:18:01;4.65;;;1.40;;
60243;SDS011;46106;51.468;5.814;2022-09-16T12:20:37;9.70;;;2.33;;
60243;SDS011;46106;51.468;5.814;2022-09-16T12:23:23;7.32;;;0.98;;
60243;SDS011;46106;51.468;5.814;2022-09-16T12:26:00;17.90;;;1.90;;
60243;SDS011;46106;51.468;5.814;2022-09-16T12:28:40;11.18;;;0.80;;
60243;SDS011;46106;51.468;5.814;2022-09-16T12:31:31;8.80;;;0.85;;
60243;SDS011;46106;51.468;5.814;2022-09-16T12:34:09;5.20;;;0.40;;
60243;SDS011;46106;51.468;5.814;2022-09-16T12:36:43;2.20;;;0.35;;
60243;SDS011;46106;51.468;5.814;2022-09-16T12:39:15;2.33;;;0.20;;
60243;SDS011;46106;51.468;5.814;2022-09-16T12:42:07;2.70;;;0.30;;
60243;SDS011;46106;51.468;5.814;2022-09-16T13:02:08;5.05;;;0.50;;
60243;SDS011;46106;51.468;5.814;2022-09-16T13:04:51;2.40;;;0.40;;
60243;SDS011;46106;51.468;5.814;2022-09-16T13:07:29;7.28;;;0.50;;
60243;SDS011;46106;51.468;5.814;2022-09-16T13:10:17;2.38;;;0.52;;
60243;SDS011;46106;51.468;5.814;2022-09-16T13:12:55;5.45;;;0.60;;
60243;SDS011;46106;51.468;5.814;2022-09-16T13:15:27;10.77;;;0.80;;
60243;SDS011;46106;51.468;5.814;2022-09-16T13:18:22;7.82;;;0.90;;
60243;SDS011;46106;51.468;5.814;2022-09-16T13:21:14;9.02;;;0.93;;
60243;SDS011;46106;51.468;5.814;2022-09-16T13:24:44;4.38;;;1.10;;
60243;SDS011;46106;51.468;5.814;2022-09-16T13:27:19;5.28;;;1.42;;
60243;SDS011;46106;51.468;5.814;2022-09-16T13:30:04;10.07;;;1.23;;
60243;SDS011;46106;51.468;5.814;2022-09-16T13:35:35;10.07;;;1.60;;
60243;SDS011;46106;51.468;5.814;2022-09-16T13:40:51;9.48;;;1.65;;
60243;SDS011;46106;51.468;5.814;2022-09-16T13:43:31;7.93;;;1.40;;
60243;SDS011;46106;51.468;5.814;2022-09-16T13:46:33;9.88;;;1.10;;
60243;SDS011;46106;51.468;5.814;2022-09-16T14:02:47;8.60;;;1.35;;
60243;SDS011;46106;51.468;5.814;2022-09-16T14:10:55;7.13;;;0.88;;
60243;SDS011;46106;51.468;5.814;2022-09-16T14:13:49;5.55;;;0.60;;
60243;SDS011;46106;51.468;5.814;2022-09-16T14:16:27;11.43;;;0.90;;
60243;SDS011;46106;51.468;5.814;2022-09-16T14:21:32;6.53;;;1.23;;
60243;SDS011;46106;51.468;5.814;2022-09-16T14:24:14;8.13;;;1.45;;
60243;SDS011;46106;51.468;5.814;2022-09-16T14:26:49;16.35;;;1.55;;
60243;SDS011;46106;51.468;5.814;2022-09-16T14:29:23;8.60;;;1.15;;
60243;SDS011;46106;51.468;5.814;2022-09-16T14:31:56;16.00;;;2.47;;
60243;SDS011;46106;51.468;5.814;2022-09-16T14:34:27;5.32;;;0.65;;
60243;SDS011;46106;51.468;5.814;2022-09-16T14:37:03;12.38;;;0.88;;
60243;SDS011;46106;51.468;5.814;2022-09-16T14:39:43;4.47;;;0.82;;
60243;SDS011;46106;51.468;5.814;2022-09-16T14:42:16;10.70;;;0.80;;
60243;SDS011;46106;51.468;5.814;2022-09-16T14:44:48;9.15;;;0.77;;
60243;SDS011;46106;51.468;5.814;2022-09-16T14:47:34;6.75;;;0.88;;
60243;SDS011;46106;51.468;5.814;2022-09-16T14:52:59;7.82;;;0.85;;
60243;SDS011;46106;51.468;5.814;2022-09-16T14:55:35;8.20;;;1.55;;
60243;SDS011;46106;51.468;5.814;2022-09-16T14:58:05;4.28;;;0.73;;
60243;SDS011;46106;51.468;5.814;2022-09-16T15:00:41;11.82;;;1.38;;
60243;SDS011;46106;51.468;5.814;2022-09-16T15:04:04;5.05;;;0.60;;
60243;SDS011;46106;51.468;5.814;2022-09-16T15:06:15;13.93;;;1.00;;
60243;SDS011;46106;51.468;5.814;2022-09-16T15:08:57;13.23;;;2.38;;
60243;SDS011;46106;51.468;5.814;2022-09-16T15:11:33;12.15;;;1.20;;
60243;SDS011;46106;51.468;5.814;2022-09-16T15:14:07;10.68;;;0.90;;
60243;SDS011;46106;51.468;5.814;2022-09-16T15:16:39;6.13;;;0.82;;
60243;SDS011;46106;51.468;5.814;2022-09-16T15:19:36;15.02;;;1.00;;
60243;SDS011;46106;51.468;5.814;2022-09-16T15:22:06;12.52;;;1.08;;
60243;SDS011;46106;51.468;5.814;2022-09-16T15:24:40;10.23;;;0.98;;
60243;SDS011;46106;51.468;5.814;2022-09-16T15:27:06;7.88;;;1.05;;
60243;SDS011;46106;51.468;5.814;2022-09-16T15:29:45;14.55;;;1.48;;
60243;SDS011;46106;51.468;5.814;2022-09-16T15:32:19;12.68;;;1.17;;
60243;SDS011;46106;51.468;5.814;2022-09-16T15:35:19;8.15;;;0.82;;
60243;SDS011;46106;51.468;5.814;2022-09-16T15:37:53;9.32;;;1.05;;
60243;SDS011;46106;51.468;5.814;2022-09-16T15:45:29;6.53;;;0.70;;
60243;SDS011;46106;51.468;5.814;2022-09-16T15:48:16;7.82;;;1.02;;
60243;SDS011;46106;51.468;5.814;2022-09-16T15:50:53;9.65;;;1.92;;
60243;SDS011;46106;51.468;5.814;2022-09-16T15:53:43;15.50;;;1.10;;
60243;SDS011;46106;51.468;5.814;2022-09-16T15:59:22;15.57;;;2.45;;
60243;SDS011;46106;51.468;5.814;2022-09-16T16:02:01;8.98;;;0.90;;
60243;SDS011;46106;51.468;5.814;2022-09-16T16:04:36;10.45;;;1.00;;
60243;SDS011;46106;51.468;5.814;2022-09-16T16:07:07;7.50;;;0.90;;
60243;SDS011;46106;51.468;5.814;2022-09-16T16:09:36;12.35;;;1.33;;
60243;SDS011;46106;51.468;5.814;2022-09-16T16:12:19;12.98;;;2.00;;
60243;SDS011;46106;51.468;5.814;2022-09-16T16:14:49;14.82;;;1.33;;
60243;SDS011;46106;51.468;5.814;2022-09-16T16:17:16;9.15;;;1.05;;
60243;SDS011;46106;51.468;5.814;2022-09-16T16:19:47;5.72;;;0.75;;
60243;SDS011;46106;51.468;5.814;2022-09-16T16:22:16;12.50;;;1.60;;
60243;SDS011;46106;51.468;5.814;2022-09-16T16:24:42;9.15;;;1.00;;
60243;SDS011;46106;51.468;5.814;2022-09-16T16:27:08;8.30;;;1.00;;
60243;SDS011;46106;51.468;5.814;2022-09-16T16:29:35;15.43;;;1.30;;
60243;SDS011;46106;51.468;5.814;2022-09-16T16:32:05;7.68;;;1.02;;
60243;SDS011;46106;51.468;5.814;2022-09-16T16:34:39;9.68;;;0.80;;
60243;SDS011;46106;51.468;5.814;2022-09-16T16:37:13;11.45;;;2.22;;
60243;SDS011;46106;51.468;5.814;2022-09-16T16:39:41;19.05;;;1.77;;
60243;SDS011;46106;51.468;5.814;2022-09-16T16:42:08;14.02;;;0.93;;
60243;SDS011;46106;51.468;5.814;2022-09-16T16:44:36;11.77;;;0.70;;
60243;SDS011;46106;51.468;5.814;2022-09-16T16:47:14;7.45;;;0.70;;
60243;SDS011;46106;51.468;5.814;2022-09-16T16:49:42;7.32;;;1.30;;
60243;SDS011;46106;51.468;5.814;2022-09-16T16:52:15;8.13;;;0.75;;
60243;SDS011;46106;51.468;5.814;2022-09-16T16:54:46;9.25;;;1.00;;
60243;SDS011;46106;51.468;5.814;2022-09-16T16:57:32;7.30;;;0.68;;
60243;SDS011;46106;51.468;5.814;2022-09-16T16:59:59;6.63;;;0.70;;
60243;SDS011;46106;51.468;5.814;2022-09-16T17:02:30;11.50;;;0.80;;
60243;SDS011;46106;51.468;5.814;2022-09-16T17:05:06;11.05;;;0.90;;
60243;SDS011;46106;51.468;5.814;2022-09-16T17:07:42;5.43;;;1.23;;
60243;SDS011;46106;51.468;5.814;2022-09-16T17:10:08;8.23;;;1.02;;
60243;SDS011;46106;51.468;5.814;2022-09-16T17:12:35;10.48;;;0.95;;
60243;SDS011;46106;51.468;5.814;2022-09-16T17:15:04;10.15;;;0.85;;
60243;SDS011;46106;51.468;5.814;2022-09-16T17:17:37;10.68;;;0.70;;
60243;SDS011;46106;51.468;5.814;2022-09-16T17:20:07;7.50;;;0.93;;
60243;SDS011;46106;51.468;5.814;2022-09-16T17:22:41;11.07;;;1.10;;
60243;SDS011;46106;51.468;5.814;2022-09-16T17:25:13;10.70;;;1.30;;
60243;SDS011;46106;51.468;5.814;2022-09-16T17:27:39;16.80;;;1.35;;
60243;SDS011;46106;51.468;5.814;2022-09-16T17:30:05;15.50;;;1.25;;
60243;SDS011;46106;51.468;5.814;2022-09-16T17:32:34;11.73;;;1.20;;
60243;SDS011;46106;51.468;5.814;2022-09-16T17:35:01;13.98;;;1.17;;
60243;SDS011;46106;51.468;5.814;2022-09-16T17:37:28;18.02;;;1.30;;
60243;SDS011;46106;51.468;5.814;2022-09-16T17:39:56;10.20;;;1.10;;
60243;SDS011;46106;51.468;5.814;2022-09-16T17:42:23;12.30;;;1.60;;
60243;SDS011;46106;51.468;5.814;2022-09-16T17:44:49;10.68;;;0.90;;
60243;SDS011;46106;51.468;5.814;2022-09-16T17:47:17;8.93;;;1.02;;
60243;SDS011;46106;51.468;5.814;2022-09-16T17:49:46;12.25;;;1.13;;
60243;SDS011;46106;51.468;5.814;2022-09-16T17:52:16;7.65;;;1.27;;
60243;SDS011;46106;51.468;5.814;2022-09-16T17:57:22;9.20;;;1.10;;
60243;SDS011;46106;51.468;5.814;2022-09-16T17:59:54;12.63;;;1.55;;
60243;SDS011;46106;51.468;5.814;2022-09-16T18:02:19;7.85;;;0.98;;
60243;SDS011;46106;51.468;5.814;2022-09-16T18:04:48;17.55;;;1.50;;
60243;SDS011;46106;51.468;5.814;2022-09-16T18:07:20;10.70;;;2.15;;
60243;SDS011;46106;51.468;5.814;2022-09-16T18:09:56;9.27;;;1.20;;
60243;SDS011;46106;51.468;5.814;2022-09-16T18:12:26;12.60;;;1.38;;
60243;SDS011;46106;51.468;5.814;2022-09-16T18:14:54;11.48;;;1.33;;
60243;SDS011;46106;51.468;5.814;2022-09-16T18:17:25;11.75;;;1.85;;
60243;SDS011;46106;51.468;5.814;2022-09-16T18:19:53;11.85;;;1.52;;
60243;SDS011;46106;51.468;5.814;2022-09-16T18:22:20;7.55;;;1.13;;
60243;SDS011;46106;51.468;5.814;2022-09-16T18:24:49;7.55;;;1.10;;
60243;SDS011;46106;51.468;5.814;2022-09-16T18:27:14;8.48;;;1.35;;
60243;SDS011;46106;51.468;5.814;2022-09-16T18:29:45;5.65;;;1.13;;
60243;SDS011;46106;51.468;5.814;2022-09-16T18:32:18;6.70;;;1.10;;
60243;SDS011;46106;51.468;5.814;2022-09-16T18:34:47;6.20;;;1.05;;
60243;SDS011;46106;51.468;5.814;2022-09-16T18:37:14;6.28;;;1.02;;